Aviation Digital Data Service (ADDS)

Output produced by METARs form (2030 UTC 06 February 2016)
found at http://aviationweather.gov/adds/metars/
 
KISO 061743Z 0618/0718 03007KT P6SM SCT250 
     FM062100 03006KT P6SM OVC060 
     FM070700 01010KT P6SM -RA BKN040 
     FM071300 02016G22KT 4SM -RA BR OVC015 AMD LTD TO CLD VIS AND WIND